createdAt,value
2016-10-08T04:01:16.404Z,1024.12
2016-10-08T04:01:41.973Z,1024.14
2016-10-08T04:02:07.578Z,1024.12
2016-10-08T04:03:05.739Z,1024.11
2016-10-08T04:03:31.287Z,1024.12
2016-10-08T04:03:56.855Z,1024.15
2016-10-08T04:04:22.508Z,1024.17
2016-10-08T04:04:48.130Z,1024.17
2016-10-08T04:05:13.693Z,1024.12
2016-10-08T04:05:39.265Z,1024.18
2016-10-08T04:06:04.911Z,1024.18
2016-10-08T04:06:30.462Z,1024.19
2016-10-08T04:06:56.024Z,1024.16
2016-10-08T04:07:21.599Z,1024.15
2016-10-08T04:07:47.163Z,1024.16
2016-10-08T04:08:12.728Z,1024.14
2016-10-08T04:08:38.292Z,1024.13
2016-10-08T04:09:03.846Z,1024.11
2016-10-08T04:09:29.416Z,1024.15
2016-10-08T04:09:54.958Z,1024.1
2016-10-08T04:10:20.520Z,1024.14
2016-10-08T04:10:46.262Z,1024.09
2016-10-08T04:11:11.891Z,1024.15
2016-10-08T04:11:37.494Z,1024.1
2016-10-08T04:12:03.051Z,1024.13
2016-10-08T04:12:28.598Z,1024.08
2016-10-08T04:12:54.183Z,1024.13
2016-10-08T04:13:19.739Z,1024.1
2016-10-08T04:13:45.400Z,1024.14
2016-10-08T04:14:10.966Z,1024.13
2016-10-08T04:14:36.534Z,1024.12
2016-10-08T04:15:02.085Z,1024.14
2016-10-08T04:15:27.654Z,1024.11
2016-10-08T04:15:53.207Z,1024.14
2016-10-08T04:16:18.761Z,1024.14
2016-10-08T04:16:44.318Z,1024.08
2016-10-08T04:17:09.873Z,1024.11
2016-10-08T04:17:35.445Z,1024.12
2016-10-08T04:18:00.985Z,1024.12
2016-10-08T04:18:26.637Z,1024.09
2016-10-08T04:18:52.194Z,1024.11
2016-10-08T04:19:17.753Z,1024.1
2016-10-08T04:19:43.330Z,1024.12
2016-10-08T04:20:08.897Z,1024.11
2016-10-08T04:20:34.458Z,1024.15
2016-10-08T04:21:00.032Z,1024.11
2016-10-08T04:21:25.578Z,1024.14
2016-10-08T04:21:51.234Z,1024.12
2016-10-08T04:22:16.805Z,1024.12
2016-10-08T04:22:42.378Z,1024.14
2016-10-08T04:23:07.939Z,1024.16
2016-10-08T04:23:33.560Z,1024.21
2016-10-08T04:23:59.136Z,1024.15
2016-10-08T04:24:24.700Z,1024.15
2016-10-08T04:24:50.299Z,1024.15
2016-10-08T04:25:15.848Z,1024.1
2016-10-08T04:25:41.373Z,1024.12
2016-10-08T04:26:06.943Z,1024.14
2016-10-08T04:26:32.506Z,1024.13
2016-10-08T04:26:58.068Z,1024.12
2016-10-08T04:27:23.639Z,1024.14
2016-10-08T04:27:49.215Z,1024.11
2016-10-08T04:28:14.782Z,1024.12
2016-10-08T04:28:40.344Z,1024.12
2016-10-08T04:29:05.938Z,1024.14
2016-10-08T04:29:31.514Z,1024.14
2016-10-08T04:29:57.083Z,1024.13
2016-10-08T04:30:22.647Z,1024.14
2016-10-08T04:30:48.182Z,1024.1
2016-10-08T04:31:13.758Z,1024.12
2016-10-08T04:31:39.323Z,1024.14
2016-10-08T04:32:04.914Z,1024.14
2016-10-08T04:32:30.562Z,1024.12
2016-10-08T04:32:56.121Z,1024.17
2016-10-08T04:33:21.691Z,1024.11
2016-10-08T04:34:35.132Z,1024.11
2016-10-08T04:35:00.693Z,1024.12
2016-10-08T04:35:26.226Z,1024.11
2016-10-08T04:35:51.798Z,1024.1
2016-10-08T04:36:17.370Z,1024.1
2016-10-08T04:37:25.795Z,1024.07
2016-10-08T04:37:51.382Z,1024.06
2016-10-08T04:38:16.964Z,1024.04
2016-10-08T04:38:42.522Z,1024.09
2016-10-08T04:39:08.079Z,1024.09
2016-10-08T04:39:33.640Z,1024.11
2016-10-08T04:39:59.202Z,1024.08
2016-10-08T04:40:24.768Z,1024.1
2016-10-08T04:40:50.326Z,1024.08
2016-10-08T04:41:15.886Z,1024.1
2016-10-08T04:41:41.488Z,1024.08
2016-10-08T04:42:07.046Z,1024.07
2016-10-08T04:42:32.592Z,1024.1
2016-10-08T04:42:58.168Z,1024.1
2016-10-08T04:43:23.726Z,1024.07
2016-10-08T04:43:49.298Z,1024.06
2016-10-08T04:44:14.893Z,1024.05
2016-10-08T04:44:40.455Z,1024.05
2016-10-08T04:45:06.019Z,1024.03
2016-10-08T04:45:31.583Z,1024.03
2016-10-08T04:45:57.143Z,1024.06
2016-10-08T04:46:22.712Z,1024.06
2016-10-08T04:46:48.282Z,1024.03
2016-10-08T04:47:13.842Z,1024.02
2016-10-08T04:47:39.388Z,1024.08
2016-10-08T04:48:04.962Z,1024.07
2016-10-08T04:48:30.521Z,1024
2016-10-08T04:48:56.089Z,1024.05
2016-10-08T04:49:21.671Z,1024.05
2016-10-08T04:50:35.201Z,1024.04
2016-10-08T04:51:00.753Z,1024.04
2016-10-08T04:51:26.293Z,1024.09
2016-10-08T04:51:51.833Z,1024.04
2016-10-08T04:52:17.393Z,1024.05
2016-10-08T04:52:42.937Z,1024.02
2016-10-08T04:53:08.602Z,1024.02
2016-10-08T04:53:34.247Z,1024.01
2016-10-08T04:53:59.818Z,1023.98
2016-10-08T04:54:25.371Z,1023.99
2016-10-08T04:54:50.939Z,1024.03
2016-10-08T04:55:16.532Z,1024.02
2016-10-08T04:55:42.087Z,1023.98
2016-10-08T04:56:07.652Z,1024.01
2016-10-08T04:56:33.209Z,1024.01
2016-10-08T04:56:58.822Z,1024.03
2016-10-08T04:57:24.401Z,1024.05
2016-10-08T04:57:49.972Z,1024.01
2016-10-08T04:58:15.535Z,1024.03
2016-10-08T04:58:41.142Z,1024.03
2016-10-08T04:59:06.758Z,1024.06
2016-10-08T04:59:32.340Z,1024.06
2016-10-08T04:59:57.895Z,1024.07
2016-10-08T05:00:23.457Z,1024.07
2016-10-08T05:00:49.010Z,1024.04
2016-10-08T05:01:14.623Z,1024.03
2016-10-08T05:01:40.188Z,1024.02
2016-10-08T05:02:05.775Z,1024.05
2016-10-08T05:02:31.411Z,1024.05
2016-10-08T05:02:56.953Z,1024.01
2016-10-08T05:03:22.493Z,1024.04
2016-10-08T05:03:48.128Z,1024.05
2016-10-08T05:04:13.674Z,1024.03
2016-10-08T05:04:39.239Z,1024
2016-10-08T05:05:04.806Z,1024
2016-10-08T05:05:30.373Z,1024.04
2016-10-08T05:05:55.937Z,1024.03
2016-10-08T05:06:21.581Z,1024.04
2016-10-08T05:06:47.141Z,1024.07
2016-10-08T05:07:12.702Z,1024.06
2016-10-08T05:07:38.316Z,1024.09
2016-10-08T05:08:03.884Z,1024.1
2016-10-08T05:08:29.448Z,1024.09
2016-10-08T05:08:55.134Z,1024.07
2016-10-08T05:09:20.697Z,1024.07
2016-10-08T05:09:46.258Z,1024.08
2016-10-08T05:10:11.836Z,1024.09
2016-10-08T05:10:37.392Z,1024.05
2016-10-08T05:11:02.981Z,1024.08
2016-10-08T05:11:28.545Z,1024.07
2016-10-08T05:11:54.097Z,1024.06
2016-10-08T05:12:19.660Z,1024.07
2016-10-08T05:12:45.221Z,1024.07
2016-10-08T05:13:10.794Z,1024.06
2016-10-08T05:13:36.384Z,1024.05
2016-10-08T05:14:01.960Z,1024.07
2016-10-08T05:14:27.517Z,1024.04
2016-10-08T05:14:53.139Z,1024.05
2016-10-08T05:15:18.726Z,1024.05
2016-10-08T05:15:44.298Z,1024.07
2016-10-08T05:16:09.856Z,1024.02
2016-10-08T05:16:35.519Z,1024.04
2016-10-08T05:17:01.085Z,1024.04
2016-10-08T05:17:26.653Z,1024.08
2016-10-08T05:17:52.223Z,1024.06
2016-10-08T05:18:17.876Z,1024.04
2016-10-08T05:18:43.450Z,1024.02
2016-10-08T05:19:09.063Z,1024
2016-10-08T05:19:34.623Z,1024
2016-10-08T05:20:00.210Z,1024.04
2016-10-08T05:20:25.804Z,1024.05
2016-10-08T05:20:51.361Z,1024.04
2016-10-08T05:21:16.934Z,1024.02
2016-10-08T05:21:42.521Z,1024.01
2016-10-08T05:22:08.096Z,1024.03
2016-10-08T05:22:33.669Z,1024.03
2016-10-08T05:22:59.303Z,1024.07
2016-10-08T05:23:24.859Z,1024.06
2016-10-08T05:23:50.417Z,1024.02
2016-10-08T05:24:16.073Z,1024.03
2016-10-08T05:24:41.654Z,1024.05
2016-10-08T05:25:07.222Z,1024.06
2016-10-08T05:25:32.792Z,1024.07
2016-10-08T05:26:36.012Z,1024.05
2016-10-08T05:27:01.623Z,1024.08
2016-10-08T05:27:27.184Z,1024.06
2016-10-08T05:27:52.899Z,1024.13
2016-10-08T05:28:18.527Z,1024.14
2016-10-08T05:28:44.101Z,1024.11
2016-10-08T05:29:09.671Z,1024.12
2016-10-08T05:29:35.229Z,1024.13
2016-10-08T05:30:38.426Z,1024.16
2016-10-08T05:31:04.004Z,1024.14
2016-10-08T05:31:29.567Z,1024.1
2016-10-08T05:31:55.120Z,1024.18
2016-10-08T05:32:20.678Z,1024.15
2016-10-08T05:32:46.232Z,1024.18
2016-10-08T05:33:11.785Z,1024.14
2016-10-08T05:33:37.355Z,1024.14
2016-10-08T05:34:02.926Z,1024.14
2016-10-08T05:34:28.592Z,1024.14
2016-10-08T05:34:54.166Z,1024.12
2016-10-08T05:35:19.724Z,1024.13
2016-10-08T05:35:45.272Z,1024.12
2016-10-08T05:36:10.963Z,1024.13
2016-10-08T05:36:36.518Z,1024.13
2016-10-08T05:37:02.091Z,1024.12
2016-10-08T05:37:27.717Z,1024.12
2016-10-08T05:37:53.272Z,1024.12
2016-10-08T05:38:18.836Z,1024.13
2016-10-08T05:38:44.396Z,1024.15
2016-10-08T05:39:09.993Z,1024.14
2016-10-08T05:39:35.584Z,1024.14
2016-10-08T05:40:01.155Z,1024.2
2016-10-08T05:40:26.721Z,1024.13
2016-10-08T05:40:52.266Z,1024.2
2016-10-08T05:41:17.840Z,1024.18
2016-10-08T05:41:43.419Z,1024.19
2016-10-08T05:42:08.986Z,1024.18
2016-10-08T05:42:34.559Z,1024.18
2016-10-08T05:43:00.136Z,1024.16
2016-10-08T05:43:25.698Z,1024.18
2016-10-08T05:43:51.258Z,1024.15
2016-10-08T05:44:16.850Z,1024.18
2016-10-08T05:44:42.638Z,1024.18
2016-10-08T05:45:08.314Z,1024.2
2016-10-08T05:45:33.902Z,1024.19
2016-10-08T05:45:59.455Z,1024.2
2016-10-08T05:46:25.018Z,1024.19
2016-10-08T05:46:50.580Z,1024.15
2016-10-08T05:47:16.126Z,1024.21
2016-10-08T05:47:41.676Z,1024.17
2016-10-08T05:48:07.401Z,1024.2
2016-10-08T05:48:32.998Z,1024.23
2016-10-08T05:48:58.568Z,1024.21
2016-10-08T05:49:24.131Z,1024.21
2016-10-08T05:49:49.696Z,1024.24
2016-10-08T05:50:15.265Z,1024.27
2016-10-08T05:50:40.952Z,1024.26
2016-10-08T05:51:39.054Z,1024.3
2016-10-08T05:52:04.622Z,1024.29
2016-10-08T05:52:30.254Z,1024.29
2016-10-08T05:52:55.805Z,1024.32
2016-10-08T05:53:21.360Z,1024.31
2016-10-08T05:53:46.939Z,1024.32
2016-10-08T05:54:12.541Z,1024.36
2016-10-08T05:54:38.109Z,1024.34
2016-10-08T05:55:03.666Z,1024.33
2016-10-08T05:55:29.229Z,1024.36
2016-10-08T05:55:54.794Z,1024.36
2016-10-08T05:56:20.412Z,1024.31
2016-10-08T05:56:45.970Z,1024.29
2016-10-08T05:57:11.514Z,1024.33
2016-10-08T05:57:37.057Z,1024.32
2016-10-08T05:58:02.612Z,1024.32
2016-10-08T05:58:28.165Z,1024.33
2016-10-08T05:58:53.748Z,1024.3
2016-10-08T05:59:19.319Z,1024.3
2016-10-08T05:59:44.880Z,1024.31
2016-10-08T06:00:10.494Z,1024.3
2016-10-08T06:01:13.698Z,1024.29
2016-10-08T06:01:39.273Z,1024.31
2016-10-08T06:02:04.828Z,1024.29
2016-10-08T06:02:30.388Z,1024.29
2016-10-08T06:02:55.956Z,1024.31
2016-10-08T06:03:21.505Z,1024.31
2016-10-08T06:03:47.094Z,1024.3
2016-10-08T06:04:12.790Z,1024.29
2016-10-08T06:04:38.348Z,1024.31
2016-10-08T06:05:41.509Z,1024.27
2016-10-08T06:06:07.057Z,1024.29
2016-10-08T06:06:32.614Z,1024.3
2016-10-08T06:06:58.157Z,1024.28
2016-10-08T06:07:56.358Z,1024.25
2016-10-08T06:08:21.907Z,1024.24
2016-10-08T06:08:47.554Z,1024.22
2016-10-08T06:09:13.128Z,1024.21
2016-10-08T06:09:38.915Z,1024.23
2016-10-08T06:10:04.452Z,1024.19
2016-10-08T06:10:30.008Z,1024.21
2016-10-08T06:10:55.560Z,1024.25
2016-10-08T06:11:21.123Z,1024.25
2016-10-08T06:11:46.666Z,1024.3
2016-10-08T06:12:12.267Z,1024.25
2016-10-08T06:12:37.821Z,1024.25
2016-10-08T06:13:03.381Z,1024.26
2016-10-08T06:13:29.023Z,1024.25
2016-10-08T06:13:55.062Z,1024.26
2016-10-08T06:14:20.565Z,1024.25
2016-10-08T06:14:46.133Z,1024.28
2016-10-08T06:15:11.714Z,1024.24
2016-10-08T06:15:37.349Z,1024.26
2016-10-08T06:16:02.919Z,1024.27
2016-10-08T06:16:28.750Z,1024.29
2016-10-08T06:16:54.079Z,1024.31
2016-10-08T06:18:07.551Z,1024.27
2016-10-08T06:18:33.108Z,1024.26
2016-10-08T06:18:58.675Z,1024.34
2016-10-08T06:19:24.628Z,1024.31
2016-10-08T06:19:50.423Z,1024.3
2016-10-08T06:20:16.078Z,1024.31
2016-10-08T06:20:41.687Z,1024.34
2016-10-08T06:21:07.270Z,1024.29
2016-10-08T06:21:32.860Z,1024.32
2016-10-08T06:21:58.435Z,1024.28
2016-10-08T06:22:24.152Z,1024.32
2016-10-08T06:22:49.735Z,1024.33
2016-10-08T06:23:15.350Z,1024.33
2016-10-08T06:23:40.889Z,1024.36
2016-10-08T06:24:44.088Z,1024.35
2016-10-08T06:25:09.914Z,1024.39
2016-10-08T06:25:35.470Z,1024.37
2016-10-08T06:26:01.022Z,1024.31
2016-10-08T06:26:26.553Z,1024.35
2016-10-08T06:26:52.083Z,1024.33
2016-10-08T06:27:17.612Z,1024.34
2016-10-08T06:27:43.173Z,1024.33
2016-10-08T06:28:08.702Z,1024.32
2016-10-08T06:28:34.254Z,1024.35
2016-10-08T06:28:59.808Z,1024.38
2016-10-08T06:29:25.393Z,1024.4
2016-10-08T06:29:50.912Z,1024.39
2016-10-08T06:30:16.469Z,1024.43
2016-10-08T06:30:42.075Z,1024.4
2016-10-08T06:31:07.896Z,1024.44
2016-10-08T06:31:33.538Z,1024.45
2016-10-08T06:31:59.198Z,1024.45
2016-10-08T06:32:24.809Z,1024.43
2016-10-08T06:32:50.379Z,1024.45
2016-10-08T06:33:15.973Z,1024.47
2016-10-08T06:34:34.535Z,1024.41
2016-10-08T06:35:00.216Z,1024.47
2016-10-08T06:35:25.792Z,1024.48
2016-10-08T06:35:51.485Z,1024.48
2016-10-08T06:36:17.062Z,1024.44
2016-10-08T06:36:42.697Z,1024.45
2016-10-08T06:37:08.384Z,1024.48
2016-10-08T06:37:33.949Z,1024.49
2016-10-08T06:37:59.525Z,1024.46
2016-10-08T06:38:25.220Z,1024.46
2016-10-08T06:38:50.778Z,1024.45
2016-10-08T06:39:16.586Z,1024.49
2016-10-08T06:39:42.216Z,1024.49
2016-10-08T06:40:07.838Z,1024.44
2016-10-08T06:40:33.551Z,1024.41
2016-10-08T06:40:59.129Z,1024.41
2016-10-08T06:41:24.720Z,1024.41
2016-10-08T06:41:50.286Z,1024.44
2016-10-08T06:42:15.860Z,1024.46
2016-10-08T06:42:41.421Z,1024.46
2016-10-08T06:43:49.785Z,1024.46
2016-10-08T06:44:15.334Z,1024.46
2016-10-08T06:44:40.893Z,1024.45
2016-10-08T06:45:06.463Z,1024.44
2016-10-08T06:45:32.018Z,1024.44
2016-10-08T06:45:57.655Z,1024.42
2016-10-08T06:46:23.215Z,1024.4
2016-10-08T06:46:48.917Z,1024.41
2016-10-08T06:47:14.565Z,1024.4
2016-10-08T06:47:40.156Z,1024.36
2016-10-08T06:48:05.703Z,1024.38
2016-10-08T06:48:31.271Z,1024.38
2016-10-08T06:48:56.825Z,1024.41
2016-10-08T06:49:22.399Z,1024.46
2016-10-08T06:49:47.943Z,1024.47
2016-10-08T06:50:13.554Z,1024.48
2016-10-08T06:50:39.173Z,1024.47
2016-10-08T06:51:04.741Z,1024.46
2016-10-08T06:51:30.307Z,1024.49
2016-10-08T06:51:55.857Z,1024.43
2016-10-08T06:52:21.519Z,1024.44
2016-10-08T06:52:47.074Z,1024.44
2016-10-08T06:53:12.719Z,1024.43
2016-10-08T06:53:38.305Z,1024.45
2016-10-08T06:54:03.927Z,1024.39
2016-10-08T06:54:29.596Z,1024.4
2016-10-08T06:54:55.159Z,1024.45
2016-10-08T06:55:20.815Z,1024.44
2016-10-08T06:55:46.845Z,1024.46
2016-10-08T06:56:12.424Z,1024.47
2016-10-08T06:56:38.069Z,1024.45
2016-10-08T06:57:03.630Z,1024.46
2016-10-08T06:57:29.168Z,1024.41
2016-10-08T06:57:54.768Z,1024.45
2016-10-08T06:58:20.344Z,1024.5
2016-10-08T06:58:45.887Z,1024.47
2016-10-08T06:59:11.506Z,1024.43
2016-10-08T06:59:37.492Z,1024.45
2016-10-08T07:00:02.952Z,1024.44
2016-10-08T07:00:28.544Z,1024.47
2016-10-08T07:00:54.220Z,1024.46
2016-10-08T07:01:19.837Z,1024.48
2016-10-08T07:01:45.400Z,1024.46
2016-10-08T07:02:11.014Z,1024.5
2016-10-08T07:02:36.638Z,1024.52
2016-10-08T07:03:02.320Z,1024.52
2016-10-08T07:03:27.872Z,1024.55
2016-10-08T07:03:53.469Z,1024.55
2016-10-08T07:04:19.056Z,1024.53
2016-10-08T07:04:44.628Z,1024.53
2016-10-08T07:05:10.183Z,1024.57
2016-10-08T07:05:35.755Z,1024.56
2016-10-08T07:06:01.315Z,1024.56
2016-10-08T07:06:26.904Z,1024.54
2016-10-08T07:06:52.586Z,1024.55
2016-10-08T07:07:18.160Z,1024.53
2016-10-08T07:07:43.707Z,1024.57
2016-10-08T07:08:09.270Z,1024.53
2016-10-08T07:08:34.819Z,1024.52
2016-10-08T07:09:00.381Z,1024.55
2016-10-08T07:09:25.950Z,1024.53
2016-10-08T07:09:51.962Z,1024.47
2016-10-08T07:10:17.525Z,1024.53
2016-10-08T07:10:43.090Z,1024.55
2016-10-08T07:11:08.672Z,1024.5
2016-10-08T07:11:34.256Z,1024.53
2016-10-08T07:11:59.901Z,1024.5
2016-10-08T07:12:25.434Z,1024.53
2016-10-08T07:12:51.047Z,1024.49
2016-10-08T07:13:16.801Z,1024.49
2016-10-08T07:14:35.389Z,1024.51
2016-10-08T07:15:01.054Z,1024.49
2016-10-08T07:15:26.679Z,1024.51
2016-10-08T07:15:52.246Z,1024.51
2016-10-08T07:16:17.783Z,1024.52
2016-10-08T07:16:43.392Z,1024.53
2016-10-08T07:17:09.051Z,1024.51
2016-10-08T07:17:34.634Z,1024.55
2016-10-08T07:18:00.316Z,1024.52
2016-10-08T07:18:25.885Z,1024.54
2016-10-08T07:18:51.627Z,1024.52
2016-10-08T07:19:17.175Z,1024.57
2016-10-08T07:19:42.945Z,1024.56
2016-10-08T07:20:08.573Z,1024.56
2016-10-08T07:20:34.161Z,1024.57
2016-10-08T07:20:59.762Z,1024.52
2016-10-08T07:21:25.361Z,1024.53
2016-10-08T07:21:50.924Z,1024.53
2016-10-08T07:22:16.480Z,1024.54
2016-10-08T07:22:42.033Z,1024.53
2016-10-08T07:23:07.729Z,1024.55
2016-10-08T07:23:33.301Z,1024.52
2016-10-08T07:23:58.886Z,1024.53
2016-10-08T07:24:24.447Z,1024.58
2016-10-08T07:24:50.015Z,1024.57
2016-10-08T07:25:15.575Z,1024.58
2016-10-08T07:25:41.148Z,1024.57
2016-10-08T07:26:06.876Z,1024.57
2016-10-08T07:26:32.465Z,1024.58
2016-10-08T07:26:58.039Z,1024.57
2016-10-08T07:27:23.728Z,1024.59
2016-10-08T07:27:49.290Z,1024.58
2016-10-08T07:28:14.863Z,1024.59
2016-10-08T07:28:40.445Z,1024.6
2016-10-08T07:29:06.013Z,1024.57
2016-10-08T07:29:31.568Z,1024.6
2016-10-08T07:29:57.117Z,1024.57
2016-10-08T07:30:22.664Z,1024.64
2016-10-08T07:30:48.209Z,1024.63
2016-10-08T07:31:13.904Z,1024.63
2016-10-08T07:31:39.484Z,1024.59
2016-10-08T07:32:05.149Z,1024.58
2016-10-08T07:32:30.857Z,1024.61
2016-10-08T07:33:44.298Z,1024.66
2016-10-08T07:34:09.862Z,1024.67
2016-10-08T07:34:35.422Z,1024.66
2016-10-08T07:35:00.983Z,1024.68
2016-10-08T07:35:26.546Z,1024.7
2016-10-08T07:35:52.400Z,1024.66
2016-10-08T07:36:18.003Z,1024.63
2016-10-08T07:36:43.590Z,1024.68
2016-10-08T07:37:09.154Z,1024.67
2016-10-08T07:37:34.722Z,1024.69
2016-10-08T07:38:00.281Z,1024.69
2016-10-08T07:38:25.927Z,1024.65
2016-10-08T07:38:51.567Z,1024.67
2016-10-08T07:39:17.264Z,1024.66
2016-10-08T07:39:42.831Z,1024.68
2016-10-08T07:40:08.382Z,1024.67
2016-10-08T07:40:33.932Z,1024.69
2016-10-08T07:40:59.494Z,1024.7
2016-10-08T07:41:25.047Z,1024.69
2016-10-08T07:41:50.585Z,1024.72
2016-10-08T07:42:16.148Z,1024.7
2016-10-08T07:42:41.686Z,1024.72
2016-10-08T07:43:07.395Z,1024.74
2016-10-08T07:43:32.976Z,1024.75
2016-10-08T07:43:58.532Z,1024.71
2016-10-08T07:44:24.145Z,1024.69
2016-10-08T07:44:49.701Z,1024.7
2016-10-08T07:45:15.256Z,1024.76
2016-10-08T07:45:40.845Z,1024.75
2016-10-08T07:46:06.410Z,1024.75
2016-10-08T07:46:32.167Z,1024.73
2016-10-08T07:46:57.927Z,1024.72
2016-10-08T07:47:23.524Z,1024.77
2016-10-08T07:47:49.102Z,1024.72
2016-10-08T07:48:14.673Z,1024.73
2016-10-08T07:48:40.244Z,1024.72
2016-10-08T07:49:05.806Z,1024.75
2016-10-08T07:49:31.383Z,1024.76
2016-10-08T07:49:57.105Z,1024.79
2016-10-08T07:50:22.647Z,1024.77
2016-10-08T07:50:48.201Z,1024.76
2016-10-08T07:51:13.789Z,1024.78
2016-10-08T07:51:39.380Z,1024.74
2016-10-08T07:52:04.941Z,1024.77
2016-10-08T07:52:30.499Z,1024.78
2016-10-08T07:52:56.201Z,1024.75
2016-10-08T07:53:21.783Z,1024.78
2016-10-08T07:53:47.328Z,1024.8
2016-10-08T07:54:13.075Z,1024.78
2016-10-08T07:54:38.643Z,1024.77
2016-10-08T07:55:04.202Z,1024.79
2016-10-08T07:55:29.758Z,1024.82
2016-10-08T07:56:43.270Z,1024.79
2016-10-08T07:57:08.826Z,1024.77
2016-10-08T07:57:34.387Z,1024.72
2016-10-08T07:57:59.951Z,1024.75
2016-10-08T07:58:25.521Z,1024.75
2016-10-08T07:58:51.073Z,1024.79
2016-10-08T07:59:16.625Z,1024.75
2016-10-08T07:59:42.187Z,1024.76
2016-10-08T08:00:07.731Z,1024.74
2016-10-08T08:00:33.390Z,1024.69
2016-10-08T08:00:58.975Z,1024.73
2016-10-08T08:01:24.529Z,1024.72
2016-10-08T08:01:50.078Z,1024.75
2016-10-08T08:02:15.738Z,1024.74
2016-10-08T08:02:41.311Z,1024.79
2016-10-08T08:03:06.958Z,1024.76
2016-10-08T08:03:32.665Z,1024.77
2016-10-08T08:03:58.482Z,1024.81
2016-10-08T08:04:24.031Z,1024.77
2016-10-08T08:04:49.612Z,1024.76
2016-10-08T08:05:15.241Z,1024.77
2016-10-08T08:05:40.839Z,1024.77
2016-10-08T08:06:06.413Z,1024.76
2016-10-08T08:06:31.960Z,1024.77
2016-10-08T08:06:57.546Z,1024.82
2016-10-08T08:07:23.111Z,1024.84
2016-10-08T08:07:48.663Z,1024.83
2016-10-08T08:08:14.235Z,1024.83
2016-10-08T08:08:40.621Z,1024.81
2016-10-08T08:09:07.105Z,1024.81
2016-10-08T08:09:33.192Z,1024.81
2016-10-08T08:09:58.754Z,1024.8
2016-10-08T08:10:24.362Z,1024.78
2016-10-08T08:10:50.107Z,1024.83
2016-10-08T08:11:16.022Z,1024.86
2016-10-08T08:11:42.460Z,1024.83
2016-10-08T08:12:08.431Z,1024.8
2016-10-08T08:12:34.536Z,1024.82
2016-10-08T08:13:01.038Z,1024.85
2016-10-08T08:13:26.667Z,1024.82
2016-10-08T08:13:52.375Z,1024.86
2016-10-08T08:14:17.947Z,1024.84
2016-10-08T08:14:43.849Z,1024.85
2016-10-08T08:15:09.714Z,1024.84
2016-10-08T08:15:35.970Z,1024.83
2016-10-08T08:16:45.310Z,1024.84
2016-10-08T08:17:10.797Z,1024.85
2016-10-08T08:17:36.411Z,1024.87
2016-10-08T08:18:02.062Z,1024.83
2016-10-08T08:18:27.923Z,1024.83
2016-10-08T08:18:54.700Z,1024.83
2016-10-08T08:19:20.126Z,1024.85
2016-10-08T08:19:45.932Z,1024.83
2016-10-08T08:20:11.719Z,1024.9
2016-10-08T08:20:37.867Z,1024.86
2016-10-08T08:21:04.201Z,1024.85
2016-10-08T08:21:30.372Z,1024.85
2016-10-08T08:21:57.091Z,1024.89
2016-10-08T08:22:22.613Z,1024.84
2016-10-08T08:22:48.337Z,1024.88
2016-10-08T08:23:13.988Z,1024.88
2016-10-08T08:23:39.996Z,1024.88
2016-10-08T08:24:05.558Z,1024.86
2016-10-08T08:24:31.233Z,1024.87
2016-10-08T08:24:57.078Z,1024.87
2016-10-08T08:25:22.693Z,1024.87
2016-10-08T08:25:48.700Z,1024.84
2016-10-08T08:26:14.173Z,1024.88
2016-10-08T08:26:40.065Z,1024.85
2016-10-08T08:27:05.773Z,1024.85
2016-10-08T08:27:32.081Z,1024.9
2016-10-08T08:27:58.914Z,1024.87
2016-10-08T08:28:24.852Z,1024.88
2016-10-08T08:28:51.509Z,1024.9
2016-10-08T08:29:17.029Z,1024.9
2016-10-08T08:29:42.863Z,1024.9
2016-10-08T08:30:08.567Z,1024.87
2016-10-08T08:30:34.349Z,1024.91
2016-10-08T08:30:59.975Z,1024.87
2016-10-08T08:31:25.600Z,1024.92
2016-10-08T08:31:51.501Z,1024.93
2016-10-08T08:32:16.997Z,1024.92
2016-10-08T08:32:42.826Z,1024.93
2016-10-08T08:33:08.388Z,1024.9
2016-10-08T08:33:34.545Z,1024.94
2016-10-08T08:34:00.554Z,1024.92
2016-10-08T08:34:26.365Z,1024.91
2016-10-08T08:34:52.641Z,1024.91
2016-10-08T08:35:18.316Z,1024.96
2016-10-08T08:35:44.676Z,1024.97
2016-10-08T08:36:10.676Z,1024.95
2016-10-08T08:36:36.576Z,1024.96
2016-10-08T08:37:02.941Z,1024.96
2016-10-08T08:38:06.346Z,1024.97
2016-10-08T08:38:32.008Z,1024.96
2016-10-08T08:38:57.624Z,1024.97
2016-10-08T08:39:23.326Z,1024.96
2016-10-08T08:39:48.937Z,1024.95
2016-10-08T08:40:14.514Z,1024.99
2016-10-08T08:40:40.093Z,1024.97
2016-10-08T08:41:05.650Z,1025.01
2016-10-08T08:41:31.212Z,1025.05
2016-10-08T08:41:56.773Z,1025
2016-10-08T08:42:22.349Z,1024.98
2016-10-08T08:42:47.917Z,1025
2016-10-08T08:43:13.544Z,1024.98
2016-10-08T08:43:39.111Z,1024.99
2016-10-08T08:44:04.654Z,1024.96
2016-10-08T08:44:30.338Z,1024.98
2016-10-08T08:44:55.877Z,1024.99
2016-10-08T08:45:21.472Z,1024.96
2016-10-08T08:45:47.102Z,1024.94
2016-10-08T08:46:12.660Z,1024.96
2016-10-08T08:46:38.240Z,1024.95
2016-10-08T08:47:03.907Z,1024.95
2016-10-08T08:47:29.579Z,1024.95
2016-10-08T08:47:55.147Z,1024.99
2016-10-08T08:48:20.669Z,1024.97
2016-10-08T08:48:46.203Z,1024.96
2016-10-08T08:49:11.776Z,1024.98
2016-10-08T08:49:37.299Z,1024.97
2016-10-08T08:50:02.860Z,1024.98
2016-10-08T08:50:28.387Z,1024.97
2016-10-08T08:50:54.203Z,1024.95
2016-10-08T08:51:19.735Z,1024.98
2016-10-08T08:51:45.320Z,1024.99
2016-10-08T08:52:10.844Z,1025.01
2016-10-08T08:52:36.370Z,1024.99
2016-10-08T08:53:01.926Z,1024.99
2016-10-08T08:53:27.560Z,1025.02
2016-10-08T08:53:53.125Z,1025.01
2016-10-08T08:54:18.687Z,1024.98
2016-10-08T08:54:44.268Z,1025.02
2016-10-08T08:55:09.845Z,1025
2016-10-08T08:56:28.423Z,1025.05
2016-10-08T08:56:54.046Z,1025.02
2016-10-08T08:57:19.633Z,1025
2016-10-08T08:57:45.187Z,1025.01
2016-10-08T08:58:10.761Z,1025.01
2016-10-08T08:58:36.313Z,1025.01
2016-10-08T08:59:01.887Z,1025.04
2016-10-08T08:59:27.471Z,1025.04
2016-10-08T08:59:53.034Z,1025.06
2016-10-08T09:00:18.609Z,1025.05
2016-10-08T09:00:44.239Z,1025.06
2016-10-08T09:01:09.814Z,1025.05
2016-10-08T09:01:35.391Z,1025.07
2016-10-08T09:02:01.040Z,1025.05
2016-10-08T09:02:26.671Z,1025.09
2016-10-08T09:03:40.262Z,1025.04
2016-10-08T09:04:05.796Z,1025.07
2016-10-08T09:04:31.379Z,1025.1
2016-10-08T09:04:56.950Z,1025.09
2016-10-08T09:05:22.501Z,1025.01
2016-10-08T09:05:48.065Z,1025.08
2016-10-08T09:06:13.618Z,1025.06
2016-10-08T09:06:39.190Z,1025.09
2016-10-08T09:07:42.365Z,1025.1
2016-10-08T09:08:07.900Z,1025.1
2016-10-08T09:08:33.573Z,1025.1
2016-10-08T09:09:46.961Z,1025.08
2016-10-08T09:10:12.520Z,1025.09
2016-10-08T09:10:38.086Z,1025.05
2016-10-08T09:11:03.696Z,1025.08
2016-10-08T09:11:29.438Z,1025.11
2016-10-08T09:11:55.005Z,1025.12
2016-10-08T09:12:20.560Z,1025.05
2016-10-08T09:12:46.115Z,1025.11
2016-10-08T09:13:11.684Z,1025.13
2016-10-08T09:13:37.315Z,1025.07
2016-10-08T09:14:02.875Z,1025.06
2016-10-08T09:14:28.436Z,1025.07
2016-10-08T09:14:54.161Z,1025.08
2016-10-08T09:15:19.730Z,1025.09
2016-10-08T09:15:45.316Z,1025.13
2016-10-08T09:16:10.931Z,1025.1
2016-10-08T09:16:36.483Z,1025.11
2016-10-08T09:17:02.044Z,1025.09
2016-10-08T09:17:27.615Z,1025.15
2016-10-08T09:17:53.166Z,1025.13
2016-10-08T09:18:18.732Z,1025.1
2016-10-08T09:18:44.288Z,1025.16
2016-10-08T09:19:09.850Z,1025.15
2016-10-08T09:19:35.426Z,1025.1
2016-10-08T09:20:01.053Z,1025.09
2016-10-08T09:20:26.592Z,1025.12
2016-10-08T09:20:52.170Z,1025.14
2016-10-08T09:21:17.716Z,1025.15
2016-10-08T09:21:43.268Z,1025.14
2016-10-08T09:22:08.841Z,1025.11
2016-10-08T09:23:22.403Z,1025.13
2016-10-08T09:23:48.080Z,1025.12
2016-10-08T09:24:13.670Z,1025.13
2016-10-08T09:24:39.252Z,1025.12
2016-10-08T09:25:04.803Z,1025.13
2016-10-08T09:25:30.334Z,1025.11
2016-10-08T09:25:55.882Z,1025.08
2016-10-08T09:26:21.512Z,1025.13
2016-10-08T09:26:47.083Z,1025.1
2016-10-08T09:27:12.647Z,1025.16
2016-10-08T09:27:38.190Z,1025.14
2016-10-08T09:28:03.775Z,1025.13
2016-10-08T09:28:29.343Z,1025.12
2016-10-08T09:28:54.889Z,1025.16
2016-10-08T09:29:20.430Z,1025.14